Hauptseite
METAR-TAF:

METAR-TAF

Flughäfen :

Neuburg, Deutschland

Fliegerhorst Neuburg

Breite: 48-43N, Länge: 011-13E, Höhe: 380 m

Beobachtung

Neuester Wetterbericht von vor 49 Minuten, um 11:20 UTC
Wind 4 kt aus West/Nordwest
Temperatur 18°C
Luftfeuchtigkeit 49%
Luftdruck 1024 hPa
Sichtweite 10 km oder mehr
Leicht bewölkt in der Höhe von 4800 ft

METAR: ETSN 211120Z 29004KT 9999 FEW048 18/07 Q1024 BLU+BLU+

Zeit: 14:09 (12:09 UTC)

Prognose

Neuester Wetterbericht von vor 1 Stunde und 53 Minuten, um 10:16 UTC
Gültige Prognose vom 21 um 11 UTC bis 21 um 20 UTC
Wind 6 kt aus West/Nordwest
Sichtweite 10 km oder mehr
Aufgelockert bewölkt in der Höhe von 4000 ft

TAF: ETSN 211016Z 2111/2120 29006KT 9999 NSW SCT040 BY ETGL

Wetterbeobachtungen und Prognosen von mehr als 4000 Flughäfen (METAR und TAF Bericht).

Die verfügbaren Stationen werden durch gelbe und rote Markierungen auf der Karte dargestellt.

Führen Sie die Maus auf sie, um den Namen der Station zu sehen.

Darauf klicken, um die Beobachtung von Wetterbeobachtungen und Prognosen zu sehen.

Um die Karte zu ändern : klicken Sie auf den grünen Tasten mit einem schwarzen Kreuz Zum Vergrößern, auf den grünen Button mit einem Gedankenstrich zu verkleinern, oder auf die grünen Pfeile für benachbarte Karten.


METAR-TAF: